sensor_id;sensor_type;location;lat;lon;timestamp;temperature;humidity
22161;DHT22;49035;48.812;11.762;2023-03-14T00:01:21;9.60;99.90
22161;DHT22;49035;48.812;11.762;2023-03-14T00:03:47;9.50;99.90
22161;DHT22;49035;48.812;11.762;2023-03-14T00:06:14;9.40;99.90
22161;DHT22;49035;48.812;11.762;2023-03-14T00:08:41;9.20;99.90
22161;DHT22;49035;48.812;11.762;2023-03-14T00:11:08;9.00;99.90
22161;DHT22;49035;48.812;11.762;2023-03-14T00:13:34;9.00;99.90
22161;DHT22;49035;48.812;11.762;2023-03-14T00:16:09;8.90;99.90
22161;DHT22;49035;48.812;11.762;2023-03-14T00:18:35;8.90;99.90
22161;DHT22;49035;48.812;11.762;2023-03-14T00:21:02;8.90;99.90
22161;DHT22;49035;48.812;11.762;2023-03-14T00:23:30;8.90;99.90
22161;DHT22;49035;48.812;11.762;2023-03-14T00:26:05;9.00;99.90
22161;DHT22;49035;48.812;11.762;2023-03-14T00:28:31;9.10;99.90
22161;DHT22;49035;48.812;11.762;2023-03-14T00:30:57;9.20;99.90
22161;DHT22;49035;48.812;11.762;2023-03-14T00:33:23;9.20;99.90
22161;DHT22;49035;48.812;11.762;2023-03-14T00:35:56;9.20;99.90
22161;DHT22;49035;48.812;11.762;2023-03-14T00:38:23;9.10;99.90
22161;DHT22;49035;48.812;11.762;2023-03-14T00:40:50;9.10;99.90
22161;DHT22;49035;48.812;11.762;2023-03-14T00:43:16;9.10;99.90
22161;DHT22;49035;48.812;11.762;2023-03-14T00:45:41;9.00;99.90
22161;DHT22;49035;48.812;11.762;2023-03-14T00:48:07;9.00;99.90
22161;DHT22;49035;48.812;11.762;2023-03-14T00:50:32;9.00;99.90
22161;DHT22;49035;48.812;11.762;2023-03-14T00:52:58;9.00;99.90
22161;DHT22;49035;48.812;11.762;2023-03-14T00:55:24;9.00;99.90
22161;DHT22;49035;48.812;11.762;2023-03-14T00:57:50;9.00;99.90
22161;DHT22;49035;48.812;11.762;2023-03-14T01:00:15;8.90;99.90
22161;DHT22;49035;48.812;11.762;2023-03-14T01:02:41;8.90;99.90
22161;DHT22;49035;48.812;11.762;2023-03-14T01:05:07;8.90;99.90
22161;DHT22;49035;48.812;11.762;2023-03-14T01:07:33;8.90;99.90
22161;DHT22;49035;48.812;11.762;2023-03-14T01:09:58;8.90;99.90
22161;DHT22;49035;48.812;11.762;2023-03-14T01:12:24;9.00;99.90
22161;DHT22;49035;48.812;11.762;2023-03-14T01:14:49;9.00;99.90
22161;DHT22;49035;48.812;11.762;2023-03-14T01:17:15;9.10;99.90
22161;DHT22;49035;48.812;11.762;2023-03-14T01:19:40;9.20;99.90
22161;DHT22;49035;48.812;11.762;2023-03-14T01:22:06;9.20;99.90
22161;DHT22;49035;48.812;11.762;2023-03-14T01:24:32;9.20;99.90
22161;DHT22;49035;48.812;11.762;2023-03-14T01:26:57;9.20;99.90
22161;DHT22;49035;48.812;11.762;2023-03-14T01:29:23;9.20;99.90
22161;DHT22;49035;48.812;11.762;2023-03-14T01:31:48;9.20;99.90
22161;DHT22;49035;48.812;11.762;2023-03-14T01:34:14;9.20;99.90
22161;DHT22;49035;48.812;11.762;2023-03-14T01:36:39;9.20;99.90
22161;DHT22;49035;48.812;11.762;2023-03-14T01:39:05;9.10;99.90
22161;DHT22;49035;48.812;11.762;2023-03-14T01:41:31;9.10;99.90
22161;DHT22;49035;48.812;11.762;2023-03-14T01:43:57;9.00;99.90
22161;DHT22;49035;48.812;11.762;2023-03-14T01:46:40;9.00;99.90
22161;DHT22;49035;48.812;11.762;2023-03-14T01:54:25;8.90;99.90
22161;DHT22;49035;48.812;11.762;2023-03-14T01:59:59;8.80;99.90
22161;DHT22;49035;48.812;11.762;2023-03-14T02:02:27;8.70;99.90
22161;DHT22;49035;48.812;11.762;2023-03-14T02:04:54;8.70;99.90
22161;DHT22;49035;48.812;11.762;2023-03-14T02:07:35;8.70;99.90
22161;DHT22;49035;48.812;11.762;2023-03-14T02:10:02;8.70;99.90
22161;DHT22;49035;48.812;11.762;2023-03-14T02:12:29;8.60;99.90
22161;DHT22;49035;48.812;11.762;2023-03-14T02:14:55;8.60;99.90
22161;DHT22;49035;48.812;11.762;2023-03-14T02:17:22;8.50;99.90
22161;DHT22;49035;48.812;11.762;2023-03-14T02:22:38;8.50;99.90
22161;DHT22;49035;48.812;11.762;2023-03-14T02:27:31;8.50;99.90
22161;DHT22;49035;48.812;11.762;2023-03-14T02:30:03;8.50;99.90
22161;DHT22;49035;48.812;11.762;2023-03-14T02:32:32;8.50;99.90
22161;DHT22;49035;48.812;11.762;2023-03-14T02:35:00;8.50;99.90
22161;DHT22;49035;48.812;11.762;2023-03-14T02:37:52;8.50;99.90
22161;DHT22;49035;48.812;11.762;2023-03-14T02:40:18;8.40;99.90
22161;DHT22;49035;48.812;11.762;2023-03-14T02:42:44;8.40;99.90
22161;DHT22;49035;48.812;11.762;2023-03-14T02:47:39;8.30;99.90
22161;DHT22;49035;48.812;11.762;2023-03-14T02:50:21;8.20;99.90
22161;DHT22;49035;48.812;11.762;2023-03-14T02:52:48;8.20;99.90
22161;DHT22;49035;48.812;11.762;2023-03-14T02:55:14;8.10;99.90
22161;DHT22;49035;48.812;11.762;2023-03-14T02:57:40;8.10;99.90
22161;DHT22;49035;48.812;11.762;2023-03-14T03:00:06;8.00;99.90
22161;DHT22;49035;48.812;11.762;2023-03-14T03:02:32;8.10;99.90
22161;DHT22;49035;48.812;11.762;2023-03-14T03:04:57;8.10;99.90
22161;DHT22;49035;48.812;11.762;2023-03-14T03:07:23;8.00;99.90
22161;DHT22;49035;48.812;11.762;2023-03-14T03:09:49;8.00;99.90
22161;DHT22;49035;48.812;11.762;2023-03-14T03:12:15;8.00;99.90
22161;DHT22;49035;48.812;11.762;2023-03-14T03:14:40;8.00;99.90
22161;DHT22;49035;48.812;11.762;2023-03-14T03:17:06;8.00;99.90
22161;DHT22;49035;48.812;11.762;2023-03-14T03:19:32;8.00;99.90
22161;DHT22;49035;48.812;11.762;2023-03-14T03:21:58;7.90;99.90
22161;DHT22;49035;48.812;11.762;2023-03-14T03:24:24;7.90;99.90
22161;DHT22;49035;48.812;11.762;2023-03-14T03:26:50;7.90;99.90
22161;DHT22;49035;48.812;11.762;2023-03-14T03:29:16;7.90;99.90
22161;DHT22;49035;48.812;11.762;2023-03-14T03:31:41;7.90;99.90
22161;DHT22;49035;48.812;11.762;2023-03-14T03:34:07;7.90;99.90
22161;DHT22;49035;48.812;11.762;2023-03-14T03:36:33;7.80;99.90
22161;DHT22;49035;48.812;11.762;2023-03-14T03:38:59;7.80;99.90
22161;DHT22;49035;48.812;11.762;2023-03-14T03:41:24;7.70;99.90
22161;DHT22;49035;48.812;11.762;2023-03-14T03:43:50;7.70;99.90
22161;DHT22;49035;48.812;11.762;2023-03-14T03:46:16;7.50;99.90
22161;DHT22;49035;48.812;11.762;2023-03-14T03:48:41;7.50;99.90
22161;DHT22;49035;48.812;11.762;2023-03-14T03:51:07;7.40;99.90
22161;DHT22;49035;48.812;11.762;2023-03-14T03:53:37;7.40;99.90
22161;DHT22;49035;48.812;11.762;2023-03-14T03:56:02;7.40;99.90
22161;DHT22;49035;48.812;11.762;2023-03-14T03:58:28;7.30;99.90
22161;DHT22;49035;48.812;11.762;2023-03-14T04:00:54;7.30;99.90
22161;DHT22;49035;48.812;11.762;2023-03-14T04:03:19;7.30;99.90
22161;DHT22;49035;48.812;11.762;2023-03-14T04:05:45;7.30;99.90
22161;DHT22;49035;48.812;11.762;2023-03-14T04:08:10;7.30;99.90
22161;DHT22;49035;48.812;11.762;2023-03-14T04:10:36;7.20;99.90
22161;DHT22;49035;48.812;11.762;2023-03-14T04:13:02;7.20;99.90
22161;DHT22;49035;48.812;11.762;2023-03-14T04:15:27;7.20;99.90
22161;DHT22;49035;48.812;11.762;2023-03-14T04:17:57;7.30;99.90
22161;DHT22;49035;48.812;11.762;2023-03-14T04:20:24;7.20;99.90
22161;DHT22;49035;48.812;11.762;2023-03-14T04:22:49;7.20;99.90
22161;DHT22;49035;48.812;11.762;2023-03-14T04:25:15;7.10;99.90
22161;DHT22;49035;48.812;11.762;2023-03-14T04:27:42;7.10;99.90
22161;DHT22;49035;48.812;11.762;2023-03-14T04:30:08;7.10;99.90
22161;DHT22;49035;48.812;11.762;2023-03-14T04:32:34;7.00;99.90
22161;DHT22;49035;48.812;11.762;2023-03-14T04:34:59;6.90;99.90
22161;DHT22;49035;48.812;11.762;2023-03-14T04:37:25;6.90;99.90
22161;DHT22;49035;48.812;11.762;2023-03-14T04:39:51;6.80;99.90
22161;DHT22;49035;48.812;11.762;2023-03-14T04:42:16;6.80;99.90
22161;DHT22;49035;48.812;11.762;2023-03-14T04:44:42;6.70;99.90
22161;DHT22;49035;48.812;11.762;2023-03-14T04:47:08;6.80;99.90
22161;DHT22;49035;48.812;11.762;2023-03-14T04:49:34;6.90;99.90
22161;DHT22;49035;48.812;11.762;2023-03-14T04:51:59;7.00;99.90
22161;DHT22;49035;48.812;11.762;2023-03-14T04:54:25;7.10;99.90
22161;DHT22;49035;48.812;11.762;2023-03-14T04:56:50;7.20;99.90
22161;DHT22;49035;48.812;11.762;2023-03-14T04:59:16;7.30;99.90
22161;DHT22;49035;48.812;11.762;2023-03-14T05:01:41;7.30;99.90
22161;DHT22;49035;48.812;11.762;2023-03-14T05:04:07;7.40;99.90
22161;DHT22;49035;48.812;11.762;2023-03-14T05:06:32;7.30;99.90
22161;DHT22;49035;48.812;11.762;2023-03-14T05:08:58;7.40;99.90
22161;DHT22;49035;48.812;11.762;2023-03-14T05:11:24;7.40;99.90
22161;DHT22;49035;48.812;11.762;2023-03-14T05:13:49;7.30;99.90
22161;DHT22;49035;48.812;11.762;2023-03-14T05:16:15;7.30;99.90
22161;DHT22;49035;48.812;11.762;2023-03-14T05:18:40;7.30;99.90
22161;DHT22;49035;48.812;11.762;2023-03-14T05:21:06;7.20;99.90
22161;DHT22;49035;48.812;11.762;2023-03-14T05:23:31;7.20;99.90
22161;DHT22;49035;48.812;11.762;2023-03-14T05:25:57;7.20;99.90
22161;DHT22;49035;48.812;11.762;2023-03-14T05:28:23;7.10;99.90
22161;DHT22;49035;48.812;11.762;2023-03-14T05:30:48;7.10;99.90
22161;DHT22;49035;48.812;11.762;2023-03-14T05:33:14;7.10;99.90
22161;DHT22;49035;48.812;11.762;2023-03-14T05:35:39;7.20;99.90
22161;DHT22;49035;48.812;11.762;2023-03-14T05:38:05;7.10;99.90
22161;DHT22;49035;48.812;11.762;2023-03-14T05:40:30;7.10;99.90
22161;DHT22;49035;48.812;11.762;2023-03-14T05:42:56;7.10;99.90
22161;DHT22;49035;48.812;11.762;2023-03-14T05:45:21;7.10;99.90
22161;DHT22;49035;48.812;11.762;2023-03-14T05:47:47;7.00;99.90
22161;DHT22;49035;48.812;11.762;2023-03-14T05:50:12;7.00;99.90
22161;DHT22;49035;48.812;11.762;2023-03-14T05:52:38;7.00;99.90
22161;DHT22;49035;48.812;11.762;2023-03-14T05:55:04;7.00;99.90
22161;DHT22;49035;48.812;11.762;2023-03-14T05:57:30;7.00;99.90
22161;DHT22;49035;48.812;11.762;2023-03-14T05:59:56;7.00;99.90
22161;DHT22;49035;48.812;11.762;2023-03-14T06:02:21;7.10;99.90
22161;DHT22;49035;48.812;11.762;2023-03-14T06:04:47;7.10;99.90
22161;DHT22;49035;48.812;11.762;2023-03-14T06:07:12;7.10;99.90
22161;DHT22;49035;48.812;11.762;2023-03-14T06:09:38;7.10;99.90
22161;DHT22;49035;48.812;11.762;2023-03-14T06:12:05;7.10;99.90
22161;DHT22;49035;48.812;11.762;2023-03-14T06:14:30;7.10;99.90
22161;DHT22;49035;48.812;11.762;2023-03-14T06:16:56;7.20;99.90
22161;DHT22;49035;48.812;11.762;2023-03-14T06:19:24;7.20;99.90
22161;DHT22;49035;48.812;11.762;2023-03-14T06:21:50;7.20;99.90
22161;DHT22;49035;48.812;11.762;2023-03-14T06:24:15;7.20;99.90
22161;DHT22;49035;48.812;11.762;2023-03-14T06:26:41;7.30;99.90
22161;DHT22;49035;48.812;11.762;2023-03-14T06:29:07;7.30;99.90
22161;DHT22;49035;48.812;11.762;2023-03-14T06:31:32;7.30;99.90
22161;DHT22;49035;48.812;11.762;2023-03-14T06:33:58;7.30;99.90
22161;DHT22;49035;48.812;11.762;2023-03-14T06:36:24;7.30;99.90
22161;DHT22;49035;48.812;11.762;2023-03-14T06:38:50;7.40;99.90
22161;DHT22;49035;48.812;11.762;2023-03-14T06:41:15;7.40;99.90
22161;DHT22;49035;48.812;11.762;2023-03-14T06:43:41;7.50;99.90
22161;DHT22;49035;48.812;11.762;2023-03-14T06:46:07;7.60;99.90
22161;DHT22;49035;48.812;11.762;2023-03-14T06:48:33;7.70;99.90
22161;DHT22;49035;48.812;11.762;2023-03-14T06:50:58;7.70;99.90
22161;DHT22;49035;48.812;11.762;2023-03-14T06:53:24;7.70;99.90
22161;DHT22;49035;48.812;11.762;2023-03-14T06:55:49;7.80;99.90
22161;DHT22;49035;48.812;11.762;2023-03-14T06:58:15;7.90;99.90
22161;DHT22;49035;48.812;11.762;2023-03-14T07:00:41;7.90;99.90
22161;DHT22;49035;48.812;11.762;2023-03-14T07:03:06;7.90;99.90
22161;DHT22;49035;48.812;11.762;2023-03-14T07:05:32;8.00;99.90
22161;DHT22;49035;48.812;11.762;2023-03-14T07:07:58;8.20;99.90
22161;DHT22;49035;48.812;11.762;2023-03-14T07:10:23;8.20;99.90
22161;DHT22;49035;48.812;11.762;2023-03-14T07:12:49;8.30;99.90
22161;DHT22;49035;48.812;11.762;2023-03-14T07:15:15;8.50;99.90
22161;DHT22;49035;48.812;11.762;2023-03-14T07:17:40;8.60;99.90
22161;DHT22;49035;48.812;11.762;2023-03-14T07:20:06;8.80;99.90
22161;DHT22;49035;48.812;11.762;2023-03-14T07:22:33;8.80;99.90
22161;DHT22;49035;48.812;11.762;2023-03-14T07:24:58;8.80;99.90
22161;DHT22;49035;48.812;11.762;2023-03-14T07:27:24;9.00;99.90
22161;DHT22;49035;48.812;11.762;2023-03-14T07:29:49;9.00;99.90
22161;DHT22;49035;48.812;11.762;2023-03-14T07:32:15;9.00;99.90
22161;DHT22;49035;48.812;11.762;2023-03-14T07:34:41;9.10;99.90
22161;DHT22;49035;48.812;11.762;2023-03-14T07:37:07;9.10;99.90
22161;DHT22;49035;48.812;11.762;2023-03-14T07:39:33;9.10;99.90
22161;DHT22;49035;48.812;11.762;2023-03-14T07:41:58;9.10;99.90
22161;DHT22;49035;48.812;11.762;2023-03-14T07:44:24;9.20;99.90
22161;DHT22;49035;48.812;11.762;2023-03-14T07:46:50;9.20;99.90
22161;DHT22;49035;48.812;11.762;2023-03-14T07:49:15;9.20;99.90
22161;DHT22;49035;48.812;11.762;2023-03-14T07:51:41;9.20;99.90
22161;DHT22;49035;48.812;11.762;2023-03-14T07:54:06;9.20;99.90
22161;DHT22;49035;48.812;11.762;2023-03-14T07:56:32;9.20;99.90
22161;DHT22;49035;48.812;11.762;2023-03-14T07:58:58;9.30;99.90
22161;DHT22;49035;48.812;11.762;2023-03-14T08:01:24;9.40;99.90
22161;DHT22;49035;48.812;11.762;2023-03-14T08:03:50;9.40;99.90
22161;DHT22;49035;48.812;11.762;2023-03-14T08:06:15;9.60;99.90
22161;DHT22;49035;48.812;11.762;2023-03-14T08:08:41;9.70;99.90
22161;DHT22;49035;48.812;11.762;2023-03-14T08:11:07;9.80;99.90
22161;DHT22;49035;48.812;11.762;2023-03-14T08:13:37;10.00;99.90
22161;DHT22;49035;48.812;11.762;2023-03-14T08:16:04;10.10;99.90
22161;DHT22;49035;48.812;11.762;2023-03-14T08:18:30;10.30;99.90
22161;DHT22;49035;48.812;11.762;2023-03-14T08:20:56;10.50;99.90
22161;DHT22;49035;48.812;11.762;2023-03-14T08:23:21;10.70;99.90
22161;DHT22;49035;48.812;11.762;2023-03-14T08:25:51;11.00;99.90
22161;DHT22;49035;48.812;11.762;2023-03-14T08:28:17;11.30;99.90
22161;DHT22;49035;48.812;11.762;2023-03-14T08:30:43;11.60;99.90
22161;DHT22;49035;48.812;11.762;2023-03-14T08:33:08;11.80;99.90
22161;DHT22;49035;48.812;11.762;2023-03-14T08:35:34;12.10;99.90
22161;DHT22;49035;48.812;11.762;2023-03-14T08:37:59;12.40;99.90
22161;DHT22;49035;48.812;11.762;2023-03-14T08:40:25;12.60;99.90
22161;DHT22;49035;48.812;11.762;2023-03-14T08:42:50;12.80;99.90
22161;DHT22;49035;48.812;11.762;2023-03-14T08:45:16;12.90;99.90
22161;DHT22;49035;48.812;11.762;2023-03-14T08:47:43;13.00;99.90
22161;DHT22;49035;48.812;11.762;2023-03-14T08:50:09;13.20;99.90
22161;DHT22;49035;48.812;11.762;2023-03-14T08:52:35;13.30;99.90
22161;DHT22;49035;48.812;11.762;2023-03-14T08:55:03;13.40;99.90
22161;DHT22;49035;48.812;11.762;2023-03-14T08:57:29;13.40;99.90
22161;DHT22;49035;48.812;11.762;2023-03-14T08:59:56;13.20;99.90
22161;DHT22;49035;48.812;11.762;2023-03-14T09:02:23;13.30;99.90
22161;DHT22;49035;48.812;11.762;2023-03-14T09:04:52;13.30;99.90
22161;DHT22;49035;48.812;11.762;2023-03-14T09:07:18;13.40;99.90
22161;DHT22;49035;48.812;11.762;2023-03-14T09:09:44;13.50;99.90
22161;DHT22;49035;48.812;11.762;2023-03-14T09:12:10;13.30;99.90
22161;DHT22;49035;48.812;11.762;2023-03-14T09:14:36;13.40;99.90
22161;DHT22;49035;48.812;11.762;2023-03-14T09:17:03;13.30;99.90
22161;DHT22;49035;48.812;11.762;2023-03-14T09:19:29;13.30;99.90
22161;DHT22;49035;48.812;11.762;2023-03-14T09:21:54;13.30;99.90
22161;DHT22;49035;48.812;11.762;2023-03-14T09:24:20;13.30;99.90
22161;DHT22;49035;48.812;11.762;2023-03-14T09:26:45;13.30;99.90
22161;DHT22;49035;48.812;11.762;2023-03-14T09:29:11;13.50;99.90
22161;DHT22;49035;48.812;11.762;2023-03-14T09:31:37;13.70;99.90
22161;DHT22;49035;48.812;11.762;2023-03-14T09:34:02;13.80;99.90
22161;DHT22;49035;48.812;11.762;2023-03-14T09:36:28;13.90;99.90
22161;DHT22;49035;48.812;11.762;2023-03-14T09:38:54;14.00;99.90
22161;DHT22;49035;48.812;11.762;2023-03-14T09:41:32;14.00;99.90
22161;DHT22;49035;48.812;11.762;2023-03-14T09:44:10;13.90;99.30
22161;DHT22;49035;48.812;11.762;2023-03-14T09:46:38;13.60;99.90
22161;DHT22;49035;48.812;11.762;2023-03-14T09:49:16;13.70;99.90
22161;DHT22;49035;48.812;11.762;2023-03-14T09:51:44;13.90;99.90
22161;DHT22;49035;48.812;11.762;2023-03-14T09:54:43;14.10;99.90
22161;DHT22;49035;48.812;11.762;2023-03-14T09:57:17;14.20;98.70
22161;DHT22;49035;48.812;11.762;2023-03-14T09:59:45;14.20;99.30
22161;DHT22;49035;48.812;11.762;2023-03-14T10:02:20;14.20;97.50
22161;DHT22;49035;48.812;11.762;2023-03-14T10:04:47;14.30;96.60
22161;DHT22;49035;48.812;11.762;2023-03-14T10:07:16;14.10;97.30
22161;DHT22;49035;48.812;11.762;2023-03-14T10:09:45;14.10;97.20
22161;DHT22;49035;48.812;11.762;2023-03-14T10:12:13;14.30;98.30
22161;DHT22;49035;48.812;11.762;2023-03-14T10:14:51;14.60;96.50
22161;DHT22;49035;48.812;11.762;2023-03-14T10:17:20;14.70;95.70
22161;DHT22;49035;48.812;11.762;2023-03-14T10:19:52;14.60;94.90
22161;DHT22;49035;48.812;11.762;2023-03-14T10:22:19;14.40;95.70
22161;DHT22;49035;48.812;11.762;2023-03-14T10:24:56;14.70;96.20
22161;DHT22;49035;48.812;11.762;2023-03-14T10:27:30;14.90;95.20
22161;DHT22;49035;48.812;11.762;2023-03-14T10:30:00;15.00;94.90
22161;DHT22;49035;48.812;11.762;2023-03-14T10:32:34;14.80;94.80
22161;DHT22;49035;48.812;11.762;2023-03-14T10:37:50;14.60;93.60
22161;DHT22;49035;48.812;11.762;2023-03-14T10:40:18;14.80;94.70
22161;DHT22;49035;48.812;11.762;2023-03-14T10:42:44;15.30;95.60
22161;DHT22;49035;48.812;11.762;2023-03-14T10:45:32;15.50;92.50
22161;DHT22;49035;48.812;11.762;2023-03-14T10:50:55;15.00;92.40
22161;DHT22;49035;48.812;11.762;2023-03-14T10:53:21;15.10;94.20
22161;DHT22;49035;48.812;11.762;2023-03-14T10:55:47;15.20;92.80
22161;DHT22;49035;48.812;11.762;2023-03-14T10:58:41;15.10;92.00
22161;DHT22;49035;48.812;11.762;2023-03-14T11:04:04;15.50;92.70
22161;DHT22;49035;48.812;11.762;2023-03-14T11:06:41;15.30;91.10
22161;DHT22;49035;48.812;11.762;2023-03-14T11:09:21;14.90;92.00
22161;DHT22;49035;48.812;11.762;2023-03-14T11:11:48;14.50;93.20
22161;DHT22;49035;48.812;11.762;2023-03-14T11:14:24;14.10;92.70
22161;DHT22;49035;48.812;11.762;2023-03-14T11:17:01;13.70;93.80
22161;DHT22;49035;48.812;11.762;2023-03-14T11:19:51;13.50;94.40
22161;DHT22;49035;48.812;11.762;2023-03-14T11:27:48;13.20;95.40
22161;DHT22;49035;48.812;11.762;2023-03-14T11:33:03;13.70;95.40
22161;DHT22;49035;48.812;11.762;2023-03-14T11:36:01;14.10;94.10
22161;DHT22;49035;48.812;11.762;2023-03-14T11:41:23;14.60;94.80
22161;DHT22;49035;48.812;11.762;2023-03-14T11:43:58;14.80;93.70
22161;DHT22;49035;48.812;11.762;2023-03-14T11:46:36;15.10;92.20
22161;DHT22;49035;48.812;11.762;2023-03-14T11:49:38;15.00;91.80
22161;DHT22;49035;48.812;11.762;2023-03-14T11:55:09;14.90;92.00
22161;DHT22;49035;48.812;11.762;2023-03-14T11:57:36;14.50;91.70
22161;DHT22;49035;48.812;11.762;2023-03-14T12:00:24;14.60;92.40
22161;DHT22;49035;48.812;11.762;2023-03-14T12:08:44;15.30;92.10
22161;DHT22;49035;48.812;11.762;2023-03-14T12:11:28;15.80;91.80
22161;DHT22;49035;48.812;11.762;2023-03-14T12:13:54;16.20;90.50
22161;DHT22;49035;48.812;11.762;2023-03-14T12:18:49;16.40;86.90
22161;DHT22;49035;48.812;11.762;2023-03-14T12:21:15;16.30;88.00
22161;DHT22;49035;48.812;11.762;2023-03-14T12:23:55;16.30;88.20
22161;DHT22;49035;48.812;11.762;2023-03-14T12:26:27;16.20;86.80
22161;DHT22;49035;48.812;11.762;2023-03-14T12:29:15;16.10;87.10
22161;DHT22;49035;48.812;11.762;2023-03-14T12:31:43;15.60;88.40
22161;DHT22;49035;48.812;11.762;2023-03-14T12:42:11;15.20;86.30
22161;DHT22;49035;48.812;11.762;2023-03-14T12:44:45;14.70;88.90
22161;DHT22;49035;48.812;11.762;2023-03-14T12:49:53;13.90;91.10
22161;DHT22;49035;48.812;11.762;2023-03-14T12:55:21;13.50;91.90
22161;DHT22;49035;48.812;11.762;2023-03-14T13:00:39;13.70;92.20
22161;DHT22;49035;48.812;11.762;2023-03-14T13:03:18;14.10;92.10
22161;DHT22;49035;48.812;11.762;2023-03-14T13:05:59;14.60;91.40
22161;DHT22;49035;48.812;11.762;2023-03-14T13:08:44;15.10;90.30
22161;DHT22;49035;48.812;11.762;2023-03-14T13:11:18;15.60;88.00
22161;DHT22;49035;48.812;11.762;2023-03-14T13:13:51;15.80;87.60
22161;DHT22;49035;48.812;11.762;2023-03-14T13:16:20;16.00;88.20
22161;DHT22;49035;48.812;11.762;2023-03-14T13:19:29;15.90;85.50
22161;DHT22;49035;48.812;11.762;2023-03-14T13:21:37;15.60;86.10
22161;DHT22;49035;48.812;11.762;2023-03-14T13:24:06;15.20;88.70
22161;DHT22;49035;48.812;11.762;2023-03-14T13:26:41;15.10;87.90
22161;DHT22;49035;48.812;11.762;2023-03-14T13:31:46;14.30;90.80
22161;DHT22;49035;48.812;11.762;2023-03-14T13:34:12;13.90;93.00
22161;DHT22;49035;48.812;11.762;2023-03-14T13:36:38;13.40;96.90
22161;DHT22;49035;48.812;11.762;2023-03-14T13:39:10;12.90;99.90
22161;DHT22;49035;48.812;11.762;2023-03-14T13:41:38;12.30;99.90
22161;DHT22;49035;48.812;11.762;2023-03-14T13:44:07;11.90;99.90
22161;DHT22;49035;48.812;11.762;2023-03-14T13:46:35;11.70;99.90
22161;DHT22;49035;48.812;11.762;2023-03-14T13:49:07;11.50;99.90
22161;DHT22;49035;48.812;11.762;2023-03-14T13:51:40;11.20;99.90
22161;DHT22;49035;48.812;11.762;2023-03-14T13:54:17;10.90;99.90
22161;DHT22;49035;48.812;11.762;2023-03-14T13:56:43;10.60;99.90
22161;DHT22;49035;48.812;11.762;2023-03-14T13:59:25;10.30;99.90
22161;DHT22;49035;48.812;11.762;2023-03-14T14:01:53;9.90;99.90
22161;DHT22;49035;48.812;11.762;2023-03-14T14:04:21;9.60;99.90
22161;DHT22;49035;48.812;11.762;2023-03-14T14:07:01;9.50;99.90
22161;DHT22;49035;48.812;11.762;2023-03-14T14:09:38;9.40;99.90
22161;DHT22;49035;48.812;11.762;2023-03-14T14:12:23;9.50;99.90
22161;DHT22;49035;48.812;11.762;2023-03-14T14:17:36;9.50;99.90
22161;DHT22;49035;48.812;11.762;2023-03-14T14:20:05;9.50;99.90
22161;DHT22;49035;48.812;11.762;2023-03-14T14:22:32;9.50;99.90
22161;DHT22;49035;48.812;11.762;2023-03-14T14:24:59;9.60;99.90
22161;DHT22;49035;48.812;11.762;2023-03-14T14:27:37;9.60;99.90
22161;DHT22;49035;48.812;11.762;2023-03-14T14:32:49;9.60;99.90
22161;DHT22;49035;48.812;11.762;2023-03-14T14:35:30;9.50;99.90
22161;DHT22;49035;48.812;11.762;2023-03-14T14:37:56;9.40;99.90
22161;DHT22;49035;48.812;11.762;2023-03-14T14:40:25;9.30;99.90
22161;DHT22;49035;48.812;11.762;2023-03-14T14:42:51;9.30;99.90
22161;DHT22;49035;48.812;11.762;2023-03-14T14:45:22;9.30;99.90
22161;DHT22;49035;48.812;11.762;2023-03-14T14:47:55;9.30;99.90
22161;DHT22;49035;48.812;11.762;2023-03-14T14:50:34;9.30;99.90
22161;DHT22;49035;48.812;11.762;2023-03-14T14:53:17;9.20;99.90
22161;DHT22;49035;48.812;11.762;2023-03-14T14:55:45;9.00;99.90
22161;DHT22;49035;48.812;11.762;2023-03-14T14:58:25;8.90;99.90
22161;DHT22;49035;48.812;11.762;2023-03-14T15:01:04;8.80;99.90
22161;DHT22;49035;48.812;11.762;2023-03-14T15:03:32;8.80;99.90
22161;DHT22;49035;48.812;11.762;2023-03-14T15:05:59;8.80;99.90
22161;DHT22;49035;48.812;11.762;2023-03-14T15:08:25;8.90;99.90
22161;DHT22;49035;48.812;11.762;2023-03-14T15:10:52;8.90;99.90
22161;DHT22;49035;48.812;11.762;2023-03-14T15:13:17;9.00;99.90
22161;DHT22;49035;48.812;11.762;2023-03-14T15:15:43;9.00;99.90
22161;DHT22;49035;48.812;11.762;2023-03-14T15:18:14;9.00;99.90
22161;DHT22;49035;48.812;11.762;2023-03-14T15:20:41;8.90;99.90
22161;DHT22;49035;48.812;11.762;2023-03-14T15:23:18;8.80;99.90
22161;DHT22;49035;48.812;11.762;2023-03-14T15:25:44;8.80;99.90
22161;DHT22;49035;48.812;11.762;2023-03-14T15:28:24;8.80;99.90
22161;DHT22;49035;48.812;11.762;2023-03-14T15:30:52;8.70;99.90
22161;DHT22;49035;48.812;11.762;2023-03-14T15:33:18;8.80;99.90
22161;DHT22;49035;48.812;11.762;2023-03-14T15:35:44;9.00;99.90
22161;DHT22;49035;48.812;11.762;2023-03-14T15:38:12;9.30;99.90
22161;DHT22;49035;48.812;11.762;2023-03-14T15:40:38;9.30;99.90
22161;DHT22;49035;48.812;11.762;2023-03-14T15:43:04;9.30;99.90
22161;DHT22;49035;48.812;11.762;2023-03-14T15:45:30;9.30;99.90
22161;DHT22;49035;48.812;11.762;2023-03-14T15:47:55;9.30;99.90
22161;DHT22;49035;48.812;11.762;2023-03-14T15:50:21;9.00;99.90
22161;DHT22;49035;48.812;11.762;2023-03-14T15:52:48;8.80;99.90
22161;DHT22;49035;48.812;11.762;2023-03-14T15:55:13;8.70;99.90
22161;DHT22;49035;48.812;11.762;2023-03-14T15:57:41;8.70;99.90
22161;DHT22;49035;48.812;11.762;2023-03-14T16:00:13;8.70;99.90
22161;DHT22;49035;48.812;11.762;2023-03-14T16:02:40;8.70;99.90
22161;DHT22;49035;48.812;11.762;2023-03-14T16:05:08;8.70;99.90
22161;DHT22;49035;48.812;11.762;2023-03-14T16:07:33;8.70;99.90
22161;DHT22;49035;48.812;11.762;2023-03-14T16:09:59;8.70;99.90
22161;DHT22;49035;48.812;11.762;2023-03-14T16:12:25;8.60;97.20
22161;DHT22;49035;48.812;11.762;2023-03-14T16:14:50;8.60;99.10
22161;DHT22;49035;48.812;11.762;2023-03-14T16:17:16;8.50;98.50
22161;DHT22;49035;48.812;11.762;2023-03-14T16:19:41;8.40;98.20
22161;DHT22;49035;48.812;11.762;2023-03-14T16:22:07;8.30;97.90
22161;DHT22;49035;48.812;11.762;2023-03-14T16:24:32;8.30;97.00
22161;DHT22;49035;48.812;11.762;2023-03-14T16:26:58;8.20;97.10
22161;DHT22;49035;48.812;11.762;2023-03-14T16:29:23;8.20;95.90
22161;DHT22;49035;48.812;11.762;2023-03-14T16:31:49;8.20;97.20
22161;DHT22;49035;48.812;11.762;2023-03-14T16:34:15;8.00;98.00
22161;DHT22;49035;48.812;11.762;2023-03-14T16:36:40;8.00;97.30
22161;DHT22;49035;48.812;11.762;2023-03-14T16:39:06;8.00;96.60
22161;DHT22;49035;48.812;11.762;2023-03-14T16:41:31;7.90;95.80
22161;DHT22;49035;48.812;11.762;2023-03-14T16:43:58;7.80;92.70